sensor_id;sensor_type;location;lat;lon;timestamp;P1;durP1;ratioP1;P2;durP2;ratioP2
28531;SDS011;15738;44.860;10.066;2022-10-17T00:00:39;41.97;;;22.08;;
28531;SDS011;15738;44.860;10.066;2022-10-17T00:03:25;41.28;;;22.83;;
28531;SDS011;15738;44.860;10.066;2022-10-17T00:06:11;40.35;;;20.95;;
28531;SDS011;15738;44.860;10.066;2022-10-17T00:08:58;38.30;;;22.25;;
28531;SDS011;15738;44.860;10.066;2022-10-17T00:11:44;44.83;;;22.75;;
28531;SDS011;15738;44.860;10.066;2022-10-17T00:14:30;43.53;;;22.70;;
28531;SDS011;15738;44.860;10.066;2022-10-17T00:17:15;40.75;;;22.60;;
28531;SDS011;15738;44.860;10.066;2022-10-17T00:20:01;46.65;;;22.77;;
28531;SDS011;15738;44.860;10.066;2022-10-17T00:22:47;35.88;;;21.05;;
28531;SDS011;15738;44.860;10.066;2022-10-17T00:25:33;39.42;;;22.75;;
28531;SDS011;15738;44.860;10.066;2022-10-17T00:28:18;42.10;;;23.50;;
28531;SDS011;15738;44.860;10.066;2022-10-17T00:31:04;47.38;;;23.83;;
28531;SDS011;15738;44.860;10.066;2022-10-17T00:33:51;41.28;;;23.40;;
28531;SDS011;15738;44.860;10.066;2022-10-17T00:36:37;38.50;;;21.95;;
28531;SDS011;15738;44.860;10.066;2022-10-17T00:39:23;40.42;;;23.05;;
28531;SDS011;15738;44.860;10.066;2022-10-17T00:42:10;40.50;;;22.10;;
28531;SDS011;15738;44.860;10.066;2022-10-17T00:45:40;42.83;;;23.05;;
28531;SDS011;15738;44.860;10.066;2022-10-17T00:48:06;37.22;;;22.05;;
28531;SDS011;15738;44.860;10.066;2022-10-17T00:50:55;45.35;;;23.13;;
28531;SDS011;15738;44.860;10.066;2022-10-17T00:53:42;47.30;;;23.27;;
28531;SDS011;15738;44.860;10.066;2022-10-17T00:56:28;48.33;;;22.48;;
28531;SDS011;15738;44.860;10.066;2022-10-17T00:59:16;45.28;;;23.05;;
28531;SDS011;15738;44.860;10.066;2022-10-17T01:02:05;40.08;;;21.42;;
28531;SDS011;15738;44.860;10.066;2022-10-17T01:04:52;45.03;;;21.90;;
28531;SDS011;15738;44.860;10.066;2022-10-17T01:07:40;40.13;;;21.95;;
28531;SDS011;15738;44.860;10.066;2022-10-17T01:10:39;38.88;;;22.30;;
28531;SDS011;15738;44.860;10.066;2022-10-17T01:13:43;44.40;;;21.95;;
28531;SDS011;15738;44.860;10.066;2022-10-17T01:16:35;39.10;;;21.63;;
28531;SDS011;15738;44.860;10.066;2022-10-17T01:22:28;45.40;;;22.27;;
28531;SDS011;15738;44.860;10.066;2022-10-17T01:29:06;38.20;;;22.02;;
28531;SDS011;15738;44.860;10.066;2022-10-17T01:38:24;40.55;;;22.15;;
28531;SDS011;15738;44.860;10.066;2022-10-17T01:41:24;38.93;;;21.67;;
28531;SDS011;15738;44.860;10.066;2022-10-17T01:44:17;42.78;;;22.88;;
28531;SDS011;15738;44.860;10.066;2022-10-17T01:47:12;39.20;;;22.48;;
28531;SDS011;15738;44.860;10.066;2022-10-17T01:50:46;45.42;;;23.02;;
28531;SDS011;15738;44.860;10.066;2022-10-17T01:53:26;46.25;;;24.25;;
28531;SDS011;15738;44.860;10.066;2022-10-17T01:56:15;46.88;;;25.55;;
28531;SDS011;15738;44.860;10.066;2022-10-17T01:59:06;43.38;;;22.92;;
28531;SDS011;15738;44.860;10.066;2022-10-17T02:02:03;40.92;;;23.73;;
28531;SDS011;15738;44.860;10.066;2022-10-17T02:04:52;41.25;;;23.25;;
28531;SDS011;15738;44.860;10.066;2022-10-17T02:07:40;42.33;;;22.88;;
28531;SDS011;15738;44.860;10.066;2022-10-17T02:10:36;39.40;;;23.10;;
28531;SDS011;15738;44.860;10.066;2022-10-17T02:28:55;39.58;;;23.25;;
28531;SDS011;15738;44.860;10.066;2022-10-17T02:32:07;41.13;;;23.23;;
28531;SDS011;15738;44.860;10.066;2022-10-17T02:34:58;41.22;;;22.23;;
28531;SDS011;15738;44.860;10.066;2022-10-17T02:37:47;44.13;;;23.23;;
28531;SDS011;15738;44.860;10.066;2022-10-17T02:40:38;41.25;;;22.60;;
28531;SDS011;15738;44.860;10.066;2022-10-17T02:43:24;43.75;;;22.80;;
28531;SDS011;15738;44.860;10.066;2022-10-17T02:46:15;49.17;;;24.52;;
28531;SDS011;15738;44.860;10.066;2022-10-17T02:52:02;44.10;;;23.40;;
28531;SDS011;15738;44.860;10.066;2022-10-17T02:55:00;46.13;;;24.67;;
28531;SDS011;15738;44.860;10.066;2022-10-17T02:57:58;49.90;;;24.27;;
28531;SDS011;15738;44.860;10.066;2022-10-17T03:00:48;49.38;;;24.50;;
28531;SDS011;15738;44.860;10.066;2022-10-17T03:03:35;49.13;;;23.90;;
28531;SDS011;15738;44.860;10.066;2022-10-17T03:06:21;48.03;;;25.63;;
28531;SDS011;15738;44.860;10.066;2022-10-17T03:09:07;47.97;;;27.05;;
28531;SDS011;15738;44.860;10.066;2022-10-17T03:11:53;48.22;;;25.60;;
28531;SDS011;15738;44.860;10.066;2022-10-17T03:14:39;50.58;;;27.52;;
28531;SDS011;15738;44.860;10.066;2022-10-17T03:17:25;49.38;;;27.10;;
28531;SDS011;15738;44.860;10.066;2022-10-17T03:20:11;47.60;;;26.67;;
28531;SDS011;15738;44.860;10.066;2022-10-17T03:22:57;49.22;;;27.92;;
28531;SDS011;15738;44.860;10.066;2022-10-17T03:25:44;46.17;;;26.38;;
28531;SDS011;15738;44.860;10.066;2022-10-17T03:28:32;56.38;;;27.77;;
28531;SDS011;15738;44.860;10.066;2022-10-17T03:31:18;48.88;;;27.15;;
28531;SDS011;15738;44.860;10.066;2022-10-17T03:34:05;50.55;;;27.25;;
28531;SDS011;15738;44.860;10.066;2022-10-17T03:36:50;48.28;;;25.58;;
28531;SDS011;15738;44.860;10.066;2022-10-17T03:39:36;47.40;;;26.38;;
28531;SDS011;15738;44.860;10.066;2022-10-17T03:42:22;46.63;;;26.65;;
28531;SDS011;15738;44.860;10.066;2022-10-17T03:45:07;51.88;;;25.67;;
28531;SDS011;15738;44.860;10.066;2022-10-17T03:47:54;49.47;;;28.02;;
28531;SDS011;15738;44.860;10.066;2022-10-17T03:50:40;49.20;;;27.60;;
28531;SDS011;15738;44.860;10.066;2022-10-17T03:53:26;53.33;;;28.88;;
28531;SDS011;15738;44.860;10.066;2022-10-17T03:56:19;54.92;;;30.20;;
28531;SDS011;15738;44.860;10.066;2022-10-17T03:59:14;55.70;;;28.63;;
28531;SDS011;15738;44.860;10.066;2022-10-17T04:02:07;58.08;;;29.30;;
28531;SDS011;15738;44.860;10.066;2022-10-17T04:04:53;54.35;;;31.17;;
28531;SDS011;15738;44.860;10.066;2022-10-17T04:07:39;63.13;;;29.83;;
28531;SDS011;15738;44.860;10.066;2022-10-17T04:10:25;58.40;;;30.20;;
28531;SDS011;15738;44.860;10.066;2022-10-17T04:13:11;58.42;;;30.85;;
28531;SDS011;15738;44.860;10.066;2022-10-17T04:15:58;60.42;;;30.52;;
28531;SDS011;15738;44.860;10.066;2022-10-17T04:18:53;61.28;;;32.00;;
28531;SDS011;15738;44.860;10.066;2022-10-17T04:21:42;58.35;;;31.70;;
28531;SDS011;15738;44.860;10.066;2022-10-17T04:24:28;64.22;;;31.83;;
28531;SDS011;15738;44.860;10.066;2022-10-17T04:27:23;62.53;;;31.83;;
28531;SDS011;15738;44.860;10.066;2022-10-17T04:30:09;65.85;;;31.55;;
28531;SDS011;15738;44.860;10.066;2022-10-17T04:32:56;62.38;;;32.45;;
28531;SDS011;15738;44.860;10.066;2022-10-17T04:35:41;58.85;;;32.08;;
28531;SDS011;15738;44.860;10.066;2022-10-17T04:38:28;64.22;;;31.70;;
28531;SDS011;15738;44.860;10.066;2022-10-17T04:41:15;68.07;;;33.72;;
28531;SDS011;15738;44.860;10.066;2022-10-17T04:44:03;69.03;;;34.00;;
28531;SDS011;15738;44.860;10.066;2022-10-17T04:46:53;69.90;;;36.38;;
28531;SDS011;15738;44.860;10.066;2022-10-17T04:49:39;70.75;;;34.92;;
28531;SDS011;15738;44.860;10.066;2022-10-17T04:52:36;73.70;;;36.63;;
28531;SDS011;15738;44.860;10.066;2022-10-17T04:55:21;70.75;;;36.47;;
28531;SDS011;15738;44.860;10.066;2022-10-17T04:58:07;84.75;;;38.08;;
28531;SDS011;15738;44.860;10.066;2022-10-17T05:00:54;74.43;;;37.88;;
28531;SDS011;15738;44.860;10.066;2022-10-17T05:03:45;70.38;;;36.92;;
28531;SDS011;15738;44.860;10.066;2022-10-17T05:06:32;74.30;;;36.88;;
28531;SDS011;15738;44.860;10.066;2022-10-17T05:09:42;70.88;;;37.20;;
28531;SDS011;15738;44.860;10.066;2022-10-17T05:12:27;68.28;;;34.58;;
28531;SDS011;15738;44.860;10.066;2022-10-17T05:15:14;69.15;;;33.63;;
28531;SDS011;15738;44.860;10.066;2022-10-17T05:18:00;73.60;;;35.33;;
28531;SDS011;15738;44.860;10.066;2022-10-17T05:20:47;74.28;;;34.78;;
28531;SDS011;15738;44.860;10.066;2022-10-17T05:23:32;71.45;;;34.33;;
28531;SDS011;15738;44.860;10.066;2022-10-17T05:26:18;69.65;;;32.58;;
28531;SDS011;15738;44.860;10.066;2022-10-17T05:29:05;57.95;;;31.92;;
28531;SDS011;15738;44.860;10.066;2022-10-17T05:31:57;69.38;;;31.52;;
28531;SDS011;15738;44.860;10.066;2022-10-17T05:34:43;68.47;;;30.90;;
28531;SDS011;15738;44.860;10.066;2022-10-17T05:37:29;71.63;;;33.35;;
28531;SDS011;15738;44.860;10.066;2022-10-17T05:40:17;63.97;;;31.25;;
28531;SDS011;15738;44.860;10.066;2022-10-17T05:43:03;63.80;;;32.08;;
28531;SDS011;15738;44.860;10.066;2022-10-17T05:45:49;64.85;;;31.33;;
28531;SDS011;15738;44.860;10.066;2022-10-17T05:48:40;59.75;;;31.33;;
28531;SDS011;15738;44.860;10.066;2022-10-17T05:51:25;63.15;;;31.70;;
28531;SDS011;15738;44.860;10.066;2022-10-17T05:54:13;61.40;;;31.10;;
28531;SDS011;15738;44.860;10.066;2022-10-17T05:56:59;62.67;;;30.55;;
28531;SDS011;15738;44.860;10.066;2022-10-17T05:59:49;75.15;;;31.42;;
28531;SDS011;15738;44.860;10.066;2022-10-17T06:02:36;56.67;;;30.02;;
28531;SDS011;15738;44.860;10.066;2022-10-17T06:05:23;74.43;;;30.90;;
28531;SDS011;15738;44.860;10.066;2022-10-17T06:08:09;66.07;;;30.63;;
28531;SDS011;15738;44.860;10.066;2022-10-17T06:10:54;65.10;;;31.23;;
28531;SDS011;15738;44.860;10.066;2022-10-17T06:13:40;60.47;;;31.95;;
28531;SDS011;15738;44.860;10.066;2022-10-17T06:16:31;72.78;;;33.55;;
28531;SDS011;15738;44.860;10.066;2022-10-17T06:19:17;67.28;;;33.33;;
28531;SDS011;15738;44.860;10.066;2022-10-17T06:22:04;71.00;;;33.13;;
28531;SDS011;15738;44.860;10.066;2022-10-17T06:24:49;68.15;;;31.02;;
28531;SDS011;15738;44.860;10.066;2022-10-17T06:27:36;59.90;;;30.02;;
28531;SDS011;15738;44.860;10.066;2022-10-17T06:30:22;71.28;;;30.67;;
28531;SDS011;15738;44.860;10.066;2022-10-17T06:33:08;62.50;;;30.60;;
28531;SDS011;15738;44.860;10.066;2022-10-17T06:35:55;61.67;;;27.73;;
28531;SDS011;15738;44.860;10.066;2022-10-17T06:38:42;56.72;;;26.63;;
28531;SDS011;15738;44.860;10.066;2022-10-17T06:41:50;54.88;;;28.20;;
28531;SDS011;15738;44.860;10.066;2022-10-17T06:44:37;57.92;;;26.85;;
28531;SDS011;15738;44.860;10.066;2022-10-17T06:47:50;61.22;;;27.42;;
28531;SDS011;15738;44.860;10.066;2022-10-17T06:50:51;58.88;;;32.28;;
28531;SDS011;15738;44.860;10.066;2022-10-17T06:53:43;63.60;;;30.85;;
28531;SDS011;15738;44.860;10.066;2022-10-17T06:56:48;64.40;;;31.15;;
28531;SDS011;15738;44.860;10.066;2022-10-17T06:59:56;63.72;;;31.00;;
28531;SDS011;15738;44.860;10.066;2022-10-17T07:02:48;64.22;;;31.60;;
28531;SDS011;15738;44.860;10.066;2022-10-17T07:05:34;59.10;;;30.52;;
28531;SDS011;15738;44.860;10.066;2022-10-17T07:08:19;51.63;;;28.70;;
28531;SDS011;15738;44.860;10.066;2022-10-17T07:11:10;54.42;;;28.70;;
28531;SDS011;15738;44.860;10.066;2022-10-17T07:13:57;55.10;;;28.42;;
28531;SDS011;15738;44.860;10.066;2022-10-17T07:16:43;53.75;;;29.05;;
28531;SDS011;15738;44.860;10.066;2022-10-17T07:19:37;54.88;;;29.85;;
28531;SDS011;15738;44.860;10.066;2022-10-17T07:22:25;49.50;;;28.02;;
28531;SDS011;15738;44.860;10.066;2022-10-17T07:25:15;45.35;;;29.00;;
28531;SDS011;15738;44.860;10.066;2022-10-17T07:28:06;49.88;;;29.55;;
28531;SDS011;15738;44.860;10.066;2022-10-17T07:30:52;49.17;;;29.92;;
28531;SDS011;15738;44.860;10.066;2022-10-17T07:33:39;45.22;;;28.42;;
28531;SDS011;15738;44.860;10.066;2022-10-17T07:36:26;46.33;;;28.80;;
28531;SDS011;15738;44.860;10.066;2022-10-17T07:39:14;42.38;;;26.85;;
28531;SDS011;15738;44.860;10.066;2022-10-17T07:42:00;45.55;;;26.30;;
28531;SDS011;15738;44.860;10.066;2022-10-17T07:44:46;42.97;;;26.02;;
28531;SDS011;15738;44.860;10.066;2022-10-17T07:47:32;45.55;;;27.95;;
28531;SDS011;15738;44.860;10.066;2022-10-17T07:50:21;47.33;;;27.25;;
28531;SDS011;15738;44.860;10.066;2022-10-17T07:53:07;49.97;;;25.63;;
28531;SDS011;15738;44.860;10.066;2022-10-17T07:55:53;51.30;;;28.15;;
28531;SDS011;15738;44.860;10.066;2022-10-17T07:58:39;45.72;;;25.90;;
28531;SDS011;15738;44.860;10.066;2022-10-17T08:01:25;45.72;;;27.17;;
28531;SDS011;15738;44.860;10.066;2022-10-17T08:04:12;48.67;;;28.92;;
28531;SDS011;15738;44.860;10.066;2022-10-17T08:06:58;44.65;;;25.85;;
28531;SDS011;15738;44.860;10.066;2022-10-17T08:10:03;42.28;;;27.80;;
28531;SDS011;15738;44.860;10.066;2022-10-17T08:12:50;39.28;;;25.85;;
28531;SDS011;15738;44.860;10.066;2022-10-17T08:15:36;46.30;;;27.15;;
28531;SDS011;15738;44.860;10.066;2022-10-17T08:18:23;42.70;;;25.48;;
28531;SDS011;15738;44.860;10.066;2022-10-17T08:21:08;39.15;;;25.00;;
28531;SDS011;15738;44.860;10.066;2022-10-17T08:23:57;46.03;;;25.20;;
28531;SDS011;15738;44.860;10.066;2022-10-17T08:26:43;45.05;;;27.13;;
28531;SDS011;15738;44.860;10.066;2022-10-17T08:29:33;43.67;;;27.98;;
28531;SDS011;15738;44.860;10.066;2022-10-17T08:32:19;48.30;;;26.83;;
28531;SDS011;15738;44.860;10.066;2022-10-17T08:35:08;47.75;;;29.80;;
28531;SDS011;15738;44.860;10.066;2022-10-17T08:37:54;49.47;;;28.77;;
28531;SDS011;15738;44.860;10.066;2022-10-17T08:40:40;45.42;;;30.33;;
28531;SDS011;15738;44.860;10.066;2022-10-17T08:43:32;56.08;;;29.52;;
28531;SDS011;15738;44.860;10.066;2022-10-17T08:46:30;49.80;;;25.95;;
28531;SDS011;15738;44.860;10.066;2022-10-17T08:49:24;46.92;;;27.67;;
28531;SDS011;15738;44.860;10.066;2022-10-17T08:52:38;48.65;;;27.83;;
28531;SDS011;15738;44.860;10.066;2022-10-17T08:55:32;43.38;;;27.85;;
28531;SDS011;15738;44.860;10.066;2022-10-17T08:58:30;52.78;;;27.70;;
28531;SDS011;15738;44.860;10.066;2022-10-17T09:10:48;58.75;;;33.28;;
28531;SDS011;15738;44.860;10.066;2022-10-17T09:17:16;64.47;;;32.90;;
28531;SDS011;15738;44.860;10.066;2022-10-17T09:20:10;54.60;;;30.92;;
28531;SDS011;15738;44.860;10.066;2022-10-17T09:23:11;75.00;;;34.70;;
28531;SDS011;15738;44.860;10.066;2022-10-17T09:26:02;56.88;;;34.03;;
28531;SDS011;15738;44.860;10.066;2022-10-17T09:28:58;52.20;;;31.30;;
28531;SDS011;15738;44.860;10.066;2022-10-17T09:32:09;60.90;;;34.53;;
28531;SDS011;15738;44.860;10.066;2022-10-17T09:34:59;53.95;;;32.33;;
28531;SDS011;15738;44.860;10.066;2022-10-17T09:37:45;63.38;;;34.80;;
28531;SDS011;15738;44.860;10.066;2022-10-17T09:40:33;55.17;;;33.47;;
28531;SDS011;15738;44.860;10.066;2022-10-17T09:43:20;57.50;;;34.13;;
28531;SDS011;15738;44.860;10.066;2022-10-17T09:46:14;56.42;;;34.70;;
28531;SDS011;15738;44.860;10.066;2022-10-17T09:49:10;56.25;;;32.92;;
28531;SDS011;15738;44.860;10.066;2022-10-17T09:52:02;48.10;;;29.20;;
28531;SDS011;15738;44.860;10.066;2022-10-17T09:54:56;60.35;;;35.35;;
28531;SDS011;15738;44.860;10.066;2022-10-17T09:57:56;52.95;;;30.98;;
28531;SDS011;15738;44.860;10.066;2022-10-17T10:00:47;67.70;;;37.65;;
28531;SDS011;15738;44.860;10.066;2022-10-17T10:03:33;60.92;;;35.92;;
28531;SDS011;15738;44.860;10.066;2022-10-17T10:06:19;65.03;;;37.17;;
28531;SDS011;15738;44.860;10.066;2022-10-17T10:09:06;61.90;;;36.88;;
28531;SDS011;15738;44.860;10.066;2022-10-17T10:12:18;70.00;;;39.50;;
28531;SDS011;15738;44.860;10.066;2022-10-17T10:15:41;71.45;;;38.08;;
28531;SDS011;15738;44.860;10.066;2022-10-17T10:24:02;68.30;;;38.47;;
28531;SDS011;15738;44.860;10.066;2022-10-17T10:26:51;68.28;;;37.97;;
28531;SDS011;15738;44.860;10.066;2022-10-17T10:29:47;74.30;;;38.35;;
28531;SDS011;15738;44.860;10.066;2022-10-17T10:32:35;66.35;;;37.72;;
28531;SDS011;15738;44.860;10.066;2022-10-17T10:35:22;75.78;;;42.05;;
28531;SDS011;15738;44.860;10.066;2022-10-17T10:38:14;71.23;;;39.93;;
28531;SDS011;15738;44.860;10.066;2022-10-17T10:41:06;74.68;;;40.90;;
28531;SDS011;15738;44.860;10.066;2022-10-17T10:43:53;79.00;;;42.90;;
28531;SDS011;15738;44.860;10.066;2022-10-17T10:46:40;75.57;;;41.95;;
28531;SDS011;15738;44.860;10.066;2022-10-17T10:49:29;74.93;;;42.72;;
28531;SDS011;15738;44.860;10.066;2022-10-17T10:52:19;66.55;;;39.13;;
28531;SDS011;15738;44.860;10.066;2022-10-17T10:55:25;80.28;;;41.60;;
28531;SDS011;15738;44.860;10.066;2022-10-17T11:04:30;85.25;;;44.92;;
28531;SDS011;15738;44.860;10.066;2022-10-17T11:10:42;92.07;;;46.83;;
28531;SDS011;15738;44.860;10.066;2022-10-17T11:13:31;82.93;;;45.92;;
28531;SDS011;15738;44.860;10.066;2022-10-17T11:16:27;82.97;;;45.20;;
28531;SDS011;15738;44.860;10.066;2022-10-17T11:19:40;80.20;;;46.80;;
28531;SDS011;15738;44.860;10.066;2022-10-17T11:22:48;78.00;;;45.17;;
28531;SDS011;15738;44.860;10.066;2022-10-17T11:25:38;85.47;;;45.78;;
28531;SDS011;15738;44.860;10.066;2022-10-17T11:28:25;87.05;;;49.40;;
28531;SDS011;15738;44.860;10.066;2022-10-17T11:31:13;87.72;;;49.35;;
28531;SDS011;15738;44.860;10.066;2022-10-17T11:34:06;92.20;;;48.38;;
28531;SDS011;15738;44.860;10.066;2022-10-17T11:37:00;90.15;;;47.22;;
28531;SDS011;15738;44.860;10.066;2022-10-17T11:39:52;82.38;;;45.25;;
28531;SDS011;15738;44.860;10.066;2022-10-17T11:45:42;78.28;;;43.75;;
28531;SDS011;15738;44.860;10.066;2022-10-17T11:48:36;81.38;;;44.00;;
28531;SDS011;15738;44.860;10.066;2022-10-17T11:51:35;86.90;;;43.65;;
28531;SDS011;15738;44.860;10.066;2022-10-17T11:58:06;86.13;;;45.55;;
28531;SDS011;15738;44.860;10.066;2022-10-17T12:13:58;71.97;;;39.83;;
28531;SDS011;15738;44.860;10.066;2022-10-17T12:16:51;68.68;;;38.20;;
28531;SDS011;15738;44.860;10.066;2022-10-17T12:19:37;73.03;;;41.88;;
28531;SDS011;15738;44.860;10.066;2022-10-17T12:22:23;82.15;;;42.38;;
28531;SDS011;15738;44.860;10.066;2022-10-17T12:25:15;72.45;;;40.95;;
28531;SDS011;15738;44.860;10.066;2022-10-17T12:31:07;74.60;;;38.28;;
28531;SDS011;15738;44.860;10.066;2022-10-17T12:34:17;69.35;;;37.63;;
28531;SDS011;15738;44.860;10.066;2022-10-17T12:37:09;65.18;;;34.63;;
28531;SDS011;15738;44.860;10.066;2022-10-17T12:39:55;62.80;;;34.75;;
28531;SDS011;15738;44.860;10.066;2022-10-17T12:42:45;60.67;;;33.65;;
28531;SDS011;15738;44.860;10.066;2022-10-17T12:45:52;63.08;;;35.00;;
28531;SDS011;15738;44.860;10.066;2022-10-17T12:51:25;72.15;;;35.92;;
28531;SDS011;15738;44.860;10.066;2022-10-17T12:54:20;59.60;;;33.50;;
28531;SDS011;15738;44.860;10.066;2022-10-17T12:57:16;60.15;;;34.42;;
28531;SDS011;15738;44.860;10.066;2022-10-17T13:03:52;59.13;;;31.48;;
28531;SDS011;15738;44.860;10.066;2022-10-17T13:06:44;57.72;;;32.33;;
28531;SDS011;15738;44.860;10.066;2022-10-17T13:09:37;56.65;;;31.83;;
28531;SDS011;15738;44.860;10.066;2022-10-17T13:12:28;56.85;;;32.22;;
28531;SDS011;15738;44.860;10.066;2022-10-17T13:15:15;64.20;;;33.78;;
28531;SDS011;15738;44.860;10.066;2022-10-17T13:18:03;61.90;;;33.33;;
28531;SDS011;15738;44.860;10.066;2022-10-17T13:20:59;59.10;;;30.55;;
28531;SDS011;15738;44.860;10.066;2022-10-17T13:23:50;67.55;;;32.00;;
28531;SDS011;15738;44.860;10.066;2022-10-17T13:26:37;58.38;;;32.70;;
28531;SDS011;15738;44.860;10.066;2022-10-17T13:29:30;64.93;;;31.43;;
28531;SDS011;15738;44.860;10.066;2022-10-17T13:32:16;60.65;;;31.88;;
28531;SDS011;15738;44.860;10.066;2022-10-17T13:35:09;58.63;;;29.63;;
28531;SDS011;15738;44.860;10.066;2022-10-17T13:37:58;57.55;;;30.88;;
28531;SDS011;15738;44.860;10.066;2022-10-17T13:40:46;60.83;;;31.55;;
28531;SDS011;15738;44.860;10.066;2022-10-17T13:43:34;52.47;;;28.33;;
28531;SDS011;15738;44.860;10.066;2022-10-17T13:46:30;55.28;;;26.23;;
28531;SDS011;15738;44.860;10.066;2022-10-17T13:49:33;51.55;;;27.73;;
28531;SDS011;15738;44.860;10.066;2022-10-17T13:52:21;47.97;;;26.60;;
28531;SDS011;15738;44.860;10.066;2022-10-17T13:55:16;46.33;;;26.63;;
28531;SDS011;15738;44.860;10.066;2022-10-17T13:58:13;47.00;;;27.05;;
28531;SDS011;15738;44.860;10.066;2022-10-17T14:01:02;53.83;;;27.30;;
28531;SDS011;15738;44.860;10.066;2022-10-17T14:03:49;38.92;;;23.33;;
28531;SDS011;15738;44.860;10.066;2022-10-17T14:06:51;43.27;;;24.43;;
28531;SDS011;15738;44.860;10.066;2022-10-17T14:09:37;47.15;;;22.40;;
28531;SDS011;15738;44.860;10.066;2022-10-17T14:12:24;42.08;;;22.98;;
28531;SDS011;15738;44.860;10.066;2022-10-17T14:15:11;47.60;;;23.48;;
28531;SDS011;15738;44.860;10.066;2022-10-17T14:18:00;37.20;;;20.67;;
28531;SDS011;15738;44.860;10.066;2022-10-17T14:20:52;39.95;;;22.77;;
28531;SDS011;15738;44.860;10.066;2022-10-17T14:33:31;33.67;;;18.27;;
28531;SDS011;15738;44.860;10.066;2022-10-17T14:36:28;37.20;;;20.10;;
28531;SDS011;15738;44.860;10.066;2022-10-17T14:39:20;29.40;;;17.17;;
28531;SDS011;15738;44.860;10.066;2022-10-17T14:42:16;25.50;;;14.98;;
28531;SDS011;15738;44.860;10.066;2022-10-17T14:45:05;24.52;;;13.52;;
28531;SDS011;15738;44.860;10.066;2022-10-17T14:47:54;43.67;;;18.58;;
28531;SDS011;15738;44.860;10.066;2022-10-17T14:54:04;22.83;;;14.82;;
28531;SDS011;15738;44.860;10.066;2022-10-17T14:57:18;39.25;;;22.13;;
28531;SDS011;15738;44.860;10.066;2022-10-17T15:00:25;51.35;;;25.58;;
28531;SDS011;15738;44.860;10.066;2022-10-17T15:03:11;37.13;;;20.13;;
28531;SDS011;15738;44.860;10.066;2022-10-17T15:05:57;40.92;;;22.00;;
28531;SDS011;15738;44.860;10.066;2022-10-17T15:09:04;37.08;;;20.08;;
28531;SDS011;15738;44.860;10.066;2022-10-17T15:11:50;39.20;;;18.98;;
28531;SDS011;15738;44.860;10.066;2022-10-17T15:14:36;29.08;;;16.35;;
28531;SDS011;15738;44.860;10.066;2022-10-17T15:17:23;26.58;;;15.35;;
28531;SDS011;15738;44.860;10.066;2022-10-17T15:20:13;31.33;;;18.83;;
28531;SDS011;15738;44.860;10.066;2022-10-17T15:23:00;26.27;;;13.80;;
28531;SDS011;15738;44.860;10.066;2022-10-17T15:25:46;22.02;;;13.75;;
28531;SDS011;15738;44.860;10.066;2022-10-17T15:28:32;28.65;;;16.42;;
28531;SDS011;15738;44.860;10.066;2022-10-17T15:31:19;25.83;;;14.88;;
28531;SDS011;15738;44.860;10.066;2022-10-17T15:34:06;29.40;;;15.48;;
28531;SDS011;15738;44.860;10.066;2022-10-17T15:36:52;27.33;;;16.48;;
28531;SDS011;15738;44.860;10.066;2022-10-17T15:39:38;28.85;;;16.73;;
28531;SDS011;15738;44.860;10.066;2022-10-17T15:42:27;34.72;;;17.10;;
28531;SDS011;15738;44.860;10.066;2022-10-17T15:45:15;24.63;;;14.18;;
28531;SDS011;15738;44.860;10.066;2022-10-17T15:48:04;25.55;;;14.63;;
28531;SDS011;15738;44.860;10.066;2022-10-17T15:50:51;21.85;;;12.95;;
28531;SDS011;15738;44.860;10.066;2022-10-17T15:53:36;28.08;;;15.45;;
28531;SDS011;15738;44.860;10.066;2022-10-17T15:56:27;23.23;;;13.77;;
28531;SDS011;15738;44.860;10.066;2022-10-17T15:59:15;22.60;;;13.50;;
28531;SDS011;15738;44.860;10.066;2022-10-17T16:02:10;22.38;;;13.95;;
28531;SDS011;15738;44.860;10.066;2022-10-17T16:04:58;26.67;;;12.38;;
28531;SDS011;15738;44.860;10.066;2022-10-17T16:07:44;27.27;;;15.93;;
28531;SDS011;15738;44.860;10.066;2022-10-17T16:10:30;28.25;;;16.80;;
28531;SDS011;15738;44.860;10.066;2022-10-17T16:13:17;35.22;;;17.73;;
28531;SDS011;15738;44.860;10.066;2022-10-17T16:16:05;30.83;;;17.70;;
28531;SDS011;15738;44.860;10.066;2022-10-17T16:18:52;30.38;;;17.67;;
28531;SDS011;15738;44.860;10.066;2022-10-17T16:21:38;32.97;;;18.20;;
28531;SDS011;15738;44.860;10.066;2022-10-17T16:24:25;38.22;;;18.70;;
28531;SDS011;15738;44.860;10.066;2022-10-17T16:27:11;30.40;;;18.27;;
28531;SDS011;15738;44.860;10.066;2022-10-17T16:29:57;34.08;;;19.13;;
28531;SDS011;15738;44.860;10.066;2022-10-17T16:32:43;34.55;;;19.25;;
28531;SDS011;15738;44.860;10.066;2022-10-17T16:35:29;33.70;;;19.88;;
28531;SDS011;15738;44.860;10.066;2022-10-17T16:38:21;38.17;;;18.83;;
28531;SDS011;15738;44.860;10.066;2022-10-17T16:41:12;35.35;;;19.85;;
28531;SDS011;15738;44.860;10.066;2022-10-17T16:44:07;35.20;;;19.17;;
28531;SDS011;15738;44.860;10.066;2022-10-17T16:46:58;37.53;;;19.75;;
28531;SDS011;15738;44.860;10.066;2022-10-17T16:49:44;37.50;;;19.90;;
28531;SDS011;15738;44.860;10.066;2022-10-17T16:52:30;38.10;;;19.90;;
28531;SDS011;15738;44.860;10.066;2022-10-17T16:55:16;39.53;;;20.63;;
28531;SDS011;15738;44.860;10.066;2022-10-17T16:58:04;40.55;;;20.05;;
28531;SDS011;15738;44.860;10.066;2022-10-17T17:00:50;40.40;;;22.52;;
28531;SDS011;15738;44.860;10.066;2022-10-17T17:03:36;48.35;;;22.58;;
28531;SDS011;15738;44.860;10.066;2022-10-17T17:06:25;43.83;;;20.25;;
28531;SDS011;15738;44.860;10.066;2022-10-17T17:09:13;43.13;;;22.27;;
28531;SDS011;15738;44.860;10.066;2022-10-17T17:11:58;44.25;;;22.63;;
28531;SDS011;15738;44.860;10.066;2022-10-17T17:14:44;41.80;;;21.15;;
28531;SDS011;15738;44.860;10.066;2022-10-17T17:17:30;52.47;;;21.90;;
28531;SDS011;15738;44.860;10.066;2022-10-17T17:20:34;47.95;;;21.75;;
28531;SDS011;15738;44.860;10.066;2022-10-17T17:23:20;48.75;;;22.02;;
28531;SDS011;15738;44.860;10.066;2022-10-17T17:26:07;47.38;;;23.02;;
28531;SDS011;15738;44.860;10.066;2022-10-17T17:28:58;48.97;;;23.17;;
28531;SDS011;15738;44.860;10.066;2022-10-17T17:31:44;55.25;;;22.77;;
28531;SDS011;15738;44.860;10.066;2022-10-17T17:34:34;41.92;;;23.30;;
28531;SDS011;15738;44.860;10.066;2022-10-17T17:37:21;43.40;;;23.75;;
28531;SDS011;15738;44.860;10.066;2022-10-17T17:40:07;51.10;;;23.13;;
28531;SDS011;15738;44.860;10.066;2022-10-17T17:42:53;46.90;;;22.30;;
28531;SDS011;15738;44.860;10.066;2022-10-17T17:45:38;42.83;;;22.75;;
28531;SDS011;15738;44.860;10.066;2022-10-17T17:48:24;46.47;;;22.75;;
28531;SDS011;15738;44.860;10.066;2022-10-17T17:51:10;40.30;;;22.45;;
28531;SDS011;15738;44.860;10.066;2022-10-17T17:53:57;38.10;;;22.05;;
28531;SDS011;15738;44.860;10.066;2022-10-17T17:56:42;44.85;;;21.58;;
28531;SDS011;15738;44.860;10.066;2022-10-17T17:59:28;46.72;;;21.92;;
28531;SDS011;15738;44.860;10.066;2022-10-17T18:02:15;38.85;;;20.75;;